Latest Weather Observations for Warburton

IDW60801

Issued at 10:23 pm WST Wednesday 8 July 2020 (issued every 10 minutes, with the page automatically refreshed every 10 minutes)

About weather observations | Map of weather stations | Latest weather observations for WA | Other Formats
Station Details ID: 013011 Name: WARBURTON AIRFIELD Lat: -26.13 Lon: 126.58 Height: 459.0 m
Data from the previous 72 hours. | See also: Recent months at Warburton
Date/Time
WST
Temp
°C
App
Temp
°C
Dew
Point
°C
Rel
Hum
%
Delta-T
°C
Wind Press
QNH
hPa
Press
MSL
hPa
Rain since
9am
mm
Dir  Spd
km/h
Gust
km/h
Spd
kts
Gust
kts
08/10:00pm 12.0 8.3 -4.6 31 6.3 SE 6 7 3 4 1020.1 1019.7 0.0
08/09:30pm 11.9 9.2 -5.5 29 6.5 CALM 0 0 0 0 1020.1 1019.7 0.0
08/09:00pm 13.6 10.7 -4.5 28 7.0 SE 2 6 1 3 1020.4 1020.0 0.0
08/08:30pm 15.0 11.1 -4.3 26 7.6 SE 7 7 4 4 1020.4 1020.0 0.0
08/08:00pm 16.2 12.4 -3.8 25 8.1 SE 7 9 4 5 1020.4 1020.0 0.0
08/07:30pm 17.0 13.2 -3.7 24 8.5 ESE 7 9 4 5 1020.4 1020.0 0.0
08/07:00pm 17.1 13.2 -4.2 23 8.6 ESE 7 7 4 4 1020.2 1019.8 0.0
08/06:30pm 17.4 13.6 -3.9 23 8.7 ESE 7 9 4 5 1020.1 1019.7 0.0
08/06:00pm 18.4 14.5 -4.3 21 9.3 E 7 9 4 5 1019.9 1019.5 0.0
08/05:30pm 20.2 16.4 -4.1 19 10.2 E 7 7 4 4 1019.5 1019.1 0.0
08/05:00pm 22.2 18.0 -4.0 17 11.1 ENE 9 11 5 6 1019.4 1019.0 0.0
08/04:30pm 23.6 18.7 -3.7 16 11.9 ENE 13 19 7 10 1019.2 1018.8 0.0
08/04:00pm 24.1 19.5 -4.1 15 12.2 E 11 17 6 9 1019.5 1019.1 0.0
08/03:30pm 24.3 19.7 -4.0 15 12.3 ENE 11 17 6 9 1019.6 1019.2 0.0
08/03:00pm 24.8 20.2 -4.5 14 12.6 NE 11 19 6 10 1019.6 1019.2 0.0
08/02:30pm 24.9 20.3 -4.4 14 12.7 NE 11 24 6 13 1019.5 1019.1 0.0
08/02:00pm 25.2 20.6 -4.2 14 12.8 NE 11 19 6 10 1019.5 1019.1 0.0
08/01:30pm 24.6 20.0 -3.7 15 12.4 NE 11 28 6 15 1020.0 1019.6 0.0
08/01:00pm 24.6 20.4 -3.7 15 12.4 NE 9 19 5 10 1020.2 1019.8 0.0
08/12:30pm 24.2 20.0 -4.0 15 12.2 NNE 9 17 5 9 1020.7 1020.4 0.0
08/12:00pm 23.9 19.4 -3.4 16 11.9 NE 11 17 6 9 1021.4 1021.0 0.0
08/11:30am 22.9 18.8 -3.4 17 11.4 E 9 15 5 8 1022.1 1021.7 0.0
08/11:00am 22.6 18.1 -2.9 18 11.1 ENE 11 17 6 9 1022.4 1022.0 0.0
08/10:30am 22.1 17.8 -1.9 20 10.7 NNE 11 19 6 10 1022.9 1022.6 0.0
08/10:00am 20.9 16.6 -1.6 22 9.9 NE 11 15 6 8 1023.2 1022.9 0.0
08/09:30am 19.5 15.6 -1.6 24 9.2 NE 9 13 5 7 1023.4 1023.1 0.0
08/09:00am 16.8 14.1 -2.3 27 8.0 ENE 2 7 1 4 1023.8 1023.4 0.0
08/08:30am 13.5 11.1 -2.8 32 6.6 CALM 0 0 0 0 1023.7 1023.3 0.0
08/08:00am 11.2 8.7 -3.7 35 5.7 CALM 0 0 0 0 1023.4 1023.1 0.0
08/07:30am 8.5 5.9 -5.3 37 4.9 CALM 0 0 0 0 1023.4 1023.1 0.0
08/07:00am 6.8 4.1 -6.2 39 4.4 CALM 0 0 0 0 1023.5 1023.2 0.0
08/06:30am 5.0 2.2 -7.1 41 4.0 CALM 0 0 0 0 1023.0 1022.7 0.0
08/06:00am 5.6 1.7 -6.3 42 4.0 NW 6 6 3 3 1022.9 1022.6 0.0
08/05:30am 5.5 2.8 -6.4 42 4.0 CALM 0 0 0 0 1022.8 1022.5 0.0
08/05:00am 5.9 3.1 -6.6 40 4.2 CALM 0 0 0 0 1022.4 1022.0 0.0
08/04:30am 6.8 3.0 -5.8 40 4.4 WNW 6 7 3 4 1022.4 1022.0 0.0
08/04:00am 6.1 3.4 -5.8 42 4.1 CALM 0 0 0 0 1022.7 1022.4 0.0
08/03:30am 5.8 3.0 -7.1 39 4.3 CALM 0 0 0 0 1022.6 1022.3 0.0
08/03:00am 6.0 3.2 -6.6 40 4.2 CALM 0 0 0 0 1022.7 1022.4 0.0
08/02:30am 6.1 3.3 -6.5 40 4.3 CALM 0 0 0 0 1022.8 1022.5 0.0
08/02:00am 6.9 4.2 -6.1 39 4.5 CALM 0 0 0 0 1022.9 1022.6 0.0
08/01:30am 7.4 4.7 -6.3 37 4.7 CALM 0 0 0 0 1023.0 1022.7 0.0
08/01:00am 8.3 5.6 -5.5 37 4.9 CALM 0 0 0 0 1023.1 1022.8 0.0
08/12:30am 8.7 6.0 -6.3 34 5.3 CALM 0 0 0 0 1023.0 1022.7 0.0
08/12:00am 8.7 6.1 -5.2 37 5.0 CALM 0 0 0 0 1023.0 1022.7 0.0
 
Date/Time
WST
Temp
°C
App
Temp
°C
Dew
Point
°C
Rel
Hum
%
Delta-T
°C
Wind Press
QNH
hPa
Press
MSL
hPa
Rain since
9am
mm
Dir  Spd
km/h
Gust
km/h
Spd
kts
Gust
kts
07/11:30pm 9.4 6.8 -5.3 35 5.3 CALM 0 0 0 0 1023.1 1022.8 0.0
07/11:00pm 9.4 6.7 -6.4 32 5.5 CALM 0 0 0 0 1023.2 1022.9 0.0
07/10:30pm 10.1 7.5 -5.4 33 5.7 CALM 0 0 0 0 1023.3 1023.0 0.0
07/10:00pm 10.5 6.5 -5.5 32 5.8 ESE 7 7 4 4 1023.4 1023.1 0.0
07/09:30pm 11.0 7.3 -4.6 33 5.9 SE 6 7 3 4 1023.4 1023.1 0.0
07/09:00pm 12.0 8.3 -4.2 32 6.2 SSE 6 7 3 4 1023.3 1023.0 0.0
07/08:30pm 12.8 10.3 -4.3 30 6.6 CALM 0 0 0 0 1023.4 1023.1 0.0
07/08:00pm 13.8 11.3 -4.4 28 7.1 CALM 0 6 0 3 1023.1 1022.8 0.0
07/07:30pm 14.5 10.3 -4.2 27 7.4 E 9 9 5 5 1023.0 1022.7 0.0
07/07:00pm 16.5 12.3 -3.6 25 8.2 ENE 9 11 5 6 1022.9 1022.6 0.0
07/06:30pm 17.8 13.6 -3.6 23 8.8 E 9 13 5 7 1022.7 1022.4 0.0
07/06:00pm 18.8 14.7 -3.3 22 9.2 ESE 9 11 5 6 1022.6 1022.3 0.0
07/05:30pm 19.2 15.0 -3.6 21 9.5 ESE 9 11 5 6 1022.3 1021.9 0.0
07/05:00pm 21.6 17.8 -3.7 18 10.8 SE 7 9 4 5 1022.0 1021.6 0.0
07/04:30pm 23.2 19.5 -3.2 17 11.5 SE 7 11 4 6 1021.9 1021.5 0.0
07/04:00pm 23.6 20.0 -3.7 16 11.8 S 6 13 3 7 1022.0 1021.6 0.0
07/03:30pm 24.1 20.0 -3.3 16 12.0 ESE 9 13 5 7 1022.0 1021.6 0.0
07/03:00pm 24.0 20.4 -3.3 16 11.9 E 6 13 3 7 1022.0 1021.6 0.0
07/02:30pm 23.5 19.3 -3.7 16 11.8 SE 9 13 5 7 1022.0 1021.6 0.0
07/02:00pm 23.7 19.9 -3.6 16 11.8 ENE 7 13 4 7 1022.1 1021.7 0.0
07/01:30pm 23.7 20.5 -3.6 16 11.9 SW 4 15 2 8 1022.4 1022.0 0.0
07/01:00pm 23.5 20.4 -2.9 17 11.6 NE 4 9 2 5 1022.8 1022.5 0.0
07/12:30pm 23.3 19.9 -2.3 18 11.4 ESE 6 15 3 8 1023.2 1022.9 0.0
07/12:00pm 22.1 17.8 -1.9 20 10.6 NNW 11 17 6 9 1023.9 1023.5 0.0
07/11:30am 21.4 17.1 -1.8 21 10.3 N 11 17 6 9 1024.4 1024.0 0.0
07/11:00am 20.7 16.4 -1.8 22 9.8 NNE 11 17 6 9 1024.9 1024.6 0.0
07/10:30am 20.0 15.0 -1.2 24 9.4 NNE 15 20 8 11 1025.3 1025.0 0.0
07/10:00am 18.8 13.9 -0.6 27 8.5 NNE 15 20 8 11 1025.6 1025.3 0.0
07/09:30am 17.3 12.0 -0.9 29 7.9 NNE 17 22 9 12 1025.8 1025.5 0.0
07/09:00am 16.5 10.8 -1.1 30 7.5 NNE 19 26 10 14 1025.8 1025.5 0.0
07/08:30am 15.6 10.2 -1.0 32 7.1 NNE 17 26 9 14 1025.7 1025.4 0.0
07/08:00am 13.4 8.0 -1.3 36 6.1 NNE 17 22 9 12 1025.6 1025.3 0.0
07/07:30am 11.8 6.7 -2.0 38 5.5 NNE 15 20 8 11 1025.4 1025.1 0.0
07/07:00am 10.8 6.0 -2.6 39 5.2 NNE 13 17 7 9 1025.4 1025.1 0.0
07/06:30am 9.5 5.1 -2.8 42 4.7 NNE 11 15 6 8 1025.1 1024.8 0.0
07/06:00am 9.6 5.1 -3.0 41 4.8 NNE 11 13 6 7 1024.8 1024.5 0.0
07/05:30am 10.2 5.4 -2.8 40 5.0 NE 13 17 7 9 1024.6 1024.3 0.0
07/05:00am 10.3 5.5 -2.7 40 5.0 NE 13 15 7 8 1024.3 1023.9 0.0
07/04:30am 10.7 5.9 -2.7 39 5.2 NE 13 17 7 9 1024.3 1023.9 0.0
07/04:00am 10.5 6.1 -2.8 39 5.1 NNE 11 15 6 8 1024.3 1023.9 0.0
07/03:30am 10.5 6.1 -2.8 39 5.2 NNE 11 13 6 7 1024.3 1023.9 0.0
07/03:00am 10.6 6.5 -3.1 38 5.3 NNE 9 11 5 6 1024.5 1024.2 0.0
07/02:30am 11.2 6.7 -3.3 36 5.6 NE 11 15 6 8 1024.5 1024.2 0.0
07/02:00am 11.6 6.7 -3.3 35 5.8 NE 13 15 7 8 1024.5 1024.2 0.0
07/01:30am 12.3 7.4 -3.5 33 6.2 NE 13 17 7 9 1024.7 1024.4 0.0
07/01:00am 12.7 8.2 -3.1 33 6.2 NE 11 15 6 8 1024.7 1024.4 0.0
07/12:30am 12.2 7.7 -3.6 33 6.2 NE 11 15 6 8 1024.8 1024.5 0.0
07/12:00am 12.4 7.9 -3.0 34 6.1 NE 11 13 6 7 1025.0 1024.7 0.0
 
Date/Time
WST
Temp
°C
App
Temp
°C
Dew
Point
°C
Rel
Hum
%
Delta-T
°C
Wind Press
QNH
hPa
Press
MSL
hPa
Rain since
9am
mm
Dir  Spd
km/h
Gust
km/h
Spd
kts
Gust
kts
06/11:30pm 11.4 7.3 -3.1 36 5.7 NE 9 11 5 6 1025.0 1024.7 0.0
06/11:00pm 8.8 4.4 -5.8 35 5.2 E 9 9 5 5 1025.0 1024.7 0.0
06/10:30pm 8.7 5.6 -6.3 34 5.3 ESE 2 7 1 4 1025.0 1024.7 0.0
06/10:00pm 9.3 6.6 -5.7 34 5.3 CALM 0 4 0 2 1024.8 1024.5 0.0
06/09:30pm 10.4 7.4 -5.6 32 5.8 NNE 2 6 1 3 1024.9 1024.6 0.0
06/09:00pm 11.5 7.6 -4.6 32 6.0 E 7 9 4 5 1024.6 1024.3 0.0
06/08:30pm 11.0 8.4 -5.0 32 6.0 CALM 0 0 0 0 1024.6 1024.3 0.0
06/08:00pm 12.6 9.7 -4.5 30 6.5 NE 2 6 1 3 1024.6 1024.3 0.0
06/07:30pm 12.9 9.9 -4.7 29 6.7 NNE 2 7 1 4 1024.6 1024.3 0.0
06/07:00pm 14.2 10.6 -4.0 28 7.1 NE 6 7 3 4 1024.3 1023.9 0.0
06/06:30pm 16.3 12.5 -3.7 25 8.1 NE 7 9 4 5 1024.1 1023.7 0.0
06/06:00pm 17.3 12.8 -3.4 24 8.5 ENE 11 13 6 7 1023.7 1023.3 0.0
06/05:30pm 18.3 14.7 -3.8 22 9.1 NE 6 7 3 4 1023.8 1023.4 0.0
06/05:00pm 20.7 16.5 -3.7 19 10.3 NE 9 11 5 6 1023.1 1022.8 0.0
06/04:30pm 22.1 18.3 -4.1 17 11.1 N 7 11 4 6 1022.7 1022.4 0.0
06/04:00pm 22.7 19.0 -4.4 16 11.5 N 6 11 3 6 1022.7 1022.4 0.0
06/03:30pm 22.9 19.0 -4.2 16 11.6 NNE 7 17 4 9 1022.8 1022.5 0.0
06/03:00pm 22.8 18.6 -3.5 17 11.3 NNW 9 13 5 7 1022.8 1022.5 0.0
06/02:30pm 22.9 18.0 -3.4 17 11.4 NE 13 20 7 11 1022.8 1022.5 0.0
06/02:00pm 22.9 18.0 -3.4 17 11.4 NNW 13 20 7 11 1023.1 1022.8 0.0
06/01:30pm 22.0 17.2 -2.7 19 10.8 N 13 24 7 13 1023.2 1022.9 0.0
06/01:00pm 22.2 17.1 -1.8 20 10.6 NNE 15 26 8 14 1023.8 1023.4 0.0
06/12:30pm 21.5 16.4 -1.7 21 10.3 N 15 22 8 12 1024.2 1023.8 0.0
06/12:00pm 21.2 16.2 -1.3 22 10.0 N 15 24 8 13 1024.9 1024.6 0.0
06/11:30am 20.2 15.2 -1.0 24 9.4 N 15 24 8 13 1025.5 1025.2 0.0
06/11:00am 19.4 13.7 -0.6 26 8.9 N 19 26 10 14 1025.8 1025.5 0.0
06/10:30am 18.4 12.7 -0.9 27 8.5 NNE 19 28 10 15 1026.3 1026.0 0.0
06/10:00am 17.9 11.6 -0.8 28 8.1 NNE 22 32 12 17 1026.7 1026.4 0.0
06/09:30am 16.9 10.6 -1.2 29 7.8 NNE 22 35 12 19 1026.9 1026.6 0.0
06/09:00am 15.2 8.1 -0.9 33 6.8 NE 26 35 14 19 1027.2 1026.9 0.0
06/08:30am 14.1 7.8 -0.7 36 6.3 NE 22 32 12 17 1027.1 1026.8 0.0
06/08:00am 12.7 6.8 -0.9 39 5.6 NE 20 30 11 16 1026.7 1026.4 0.0
06/07:30am 11.6 5.6 -1.2 41 5.2 NE 20 28 11 15 1026.4 1026.1 0.0
06/07:00am 10.7 5.7 -1.0 44 4.7 NE 15 20 8 11 1026.3 1026.0 0.0
06/06:30am 9.9 4.5 -1.5 45 4.5 NE 17 22 9 12 1026.1 1025.7 0.0
06/06:00am 10.2 4.4 -1.2 45 4.6 NE 19 28 10 15 1025.7 1025.4 0.0
06/05:30am 10.6 4.2 -1.4 43 4.8 NE 22 32 12 17 1025.4 1025.1 0.0
06/05:00am 11.0 5.2 -1.4 42 5.0 NE 19 26 10 14 1025.1 1024.8 0.0
06/04:30am 11.3 6.3 -1.5 41 5.2 ENE 15 22 8 12 1024.9 1024.6 0.0
06/04:00am 11.5 6.8 -1.6 40 5.3 ENE 13 22 7 12 1024.8 1024.5 0.0
06/03:30am 11.7 6.2 -1.8 39 5.4 ENE 17 24 9 13 1024.8 1024.5 0.0
06/03:00am 11.9 6.4 -1.9 38 5.5 ENE 17 22 9 12 1024.9 1024.6 0.0
06/02:30am 11.9 6.8 -1.9 38 5.6 NE 15 20 8 11 1024.9 1024.6 0.0
06/02:00am 11.7 7.0 -2.1 38 5.5 NE 13 19 7 10 1025.0 1024.7 0.0
06/01:30am 11.5 7.1 -2.7 37 5.6 NE 11 15 6 8 1025.1 1024.8 0.0
06/01:00am 12.0 7.6 -2.6 36 5.8 NE 11 15 6 8 1025.0 1024.7 0.0
06/12:30am 12.4 7.6 -2.6 35 6.0 NE 13 17 7 9 1025.0 1024.7 0.0
06/12:00am 13.1 7.8 -3.2 32 6.4 NE 15 20 8 11 1025.0 1024.7 0.0
 
Date/Time
WST
Temp
°C
App
Temp
°C
Dew
Point
°C
Rel
Hum
%
Delta-T
°C
Wind Press
QNH
hPa
Press
MSL
hPa
Rain since
9am
mm
Dir  Spd
km/h
Gust
km/h
Spd
kts
Gust
kts
05/11:30pm 14.0 8.4 -2.8 31 6.8 ENE 17 24 9 13 1025.1 1024.8 0.0
05/11:00pm 15.3 9.2 -2.6 29 7.3 ENE 20 26 11 14 1025.2 1024.9 0.0
05/10:48pm 15.7 10.2 -2.3 29 7.5 ENE 17 28 9 15 1025.1 1024.8 0.0
05/10:30pm 10.7 6.6 -3.4 37 5.4 E 9 13 5 7 1025.2 1024.9 0.0

Other formats

Comma delimited format used in spreadsheet applications
http://www.bom.gov.au/fwo/IDW60801/IDW60801.94457.axf

JavaScript Object Notation format (JSON) in row-major order
http://www.bom.gov.au/fwo/IDW60801/IDW60801.94457.json

Data quality

Most of these data are generated automatically and are frequently updated. Quality checks on data are not normally performed. It is possible for incorrect values to appear. Refer to information at About Latest Weather Observations and please check the disclaimer before using these data.